sensor_id;sensor_type;location;lat;lon;timestamp;pressure;altitude;pressure_sealevel;temperature;humidity
46598;BME280;32318;48.858;8.252;2022-09-13T00:03:39;99830.06;;;17.83;65.07
46598;BME280;32318;48.858;8.252;2022-09-13T00:11:39;99814.09;;;17.81;64.84
46598;BME280;32318;48.858;8.252;2022-09-13T00:19:39;99803.09;;;17.76;64.85
46598;BME280;32318;48.858;8.252;2022-09-13T00:27:40;99800.84;;;17.73;65.06
46598;BME280;32318;48.858;8.252;2022-09-13T00:35:40;99783.44;;;17.69;64.65
46598;BME280;32318;48.858;8.252;2022-09-13T00:43:49;99774.97;;;17.65;64.88
46598;BME280;32318;48.858;8.252;2022-09-13T00:51:55;99789.94;;;17.61;64.58
46598;BME280;32318;48.858;8.252;2022-09-13T01:00:09;99785.06;;;17.51;64.27
46598;BME280;32318;48.858;8.252;2022-09-13T01:08:12;99794.25;;;17.44;64.12
46598;BME280;32318;48.858;8.252;2022-09-13T01:16:21;99782.25;;;17.39;64.33
46598;BME280;32318;48.858;8.252;2022-09-13T01:49:35;99822.16;;;17.05;65.62
46598;BME280;32318;48.858;8.252;2022-09-13T01:57:43;99837.78;;;16.90;65.91
46598;BME280;32318;48.858;8.252;2022-09-13T02:05:57;99845.69;;;16.78;65.82
46598;BME280;32318;48.858;8.252;2022-09-13T02:14:20;99844.50;;;16.60;67.14
46598;BME280;32318;48.858;8.252;2022-09-13T02:22:26;99838.31;;;16.60;66.65
46598;BME280;32318;48.858;8.252;2022-09-13T02:30:30;99823.81;;;16.54;65.91
46598;BME280;32318;48.858;8.252;2022-09-13T02:38:37;99809.13;;;16.50;66.38
46598;BME280;32318;48.858;8.252;2022-09-13T03:03:08;99814.38;;;16.38;66.70
46598;BME280;32318;48.858;8.252;2022-09-13T03:11:21;99796.16;;;16.34;66.70
46598;BME280;32318;48.858;8.252;2022-09-13T03:36:19;99786.19;;;16.34;66.36
46598;BME280;32318;48.858;8.252;2022-09-13T03:44:22;99776.28;;;16.28;66.49
46598;BME280;32318;48.858;8.252;2022-09-13T03:52:24;99767.75;;;16.31;66.30
46598;BME280;32318;48.858;8.252;2022-09-13T04:00:25;99759.50;;;16.26;66.24
46598;BME280;32318;48.858;8.252;2022-09-13T04:08:35;99770.09;;;16.21;67.03
46598;BME280;32318;48.858;8.252;2022-09-13T04:16:36;99776.69;;;16.25;66.27
46598;BME280;32318;48.858;8.252;2022-09-13T04:24:36;99794.97;;;16.16;66.52
46598;BME280;32318;48.858;8.252;2022-09-13T04:32:37;99786.25;;;16.14;66.56
46598;BME280;32318;48.858;8.252;2022-09-13T04:40:38;99814.03;;;16.08;67.09
46598;BME280;32318;48.858;8.252;2022-09-13T04:48:38;99807.41;;;16.04;67.08
46598;BME280;32318;48.858;8.252;2022-09-13T04:56:38;99824.38;;;16.04;67.14
46598;BME280;32318;48.858;8.252;2022-09-13T05:04:39;99824.81;;;16.01;67.04
46598;BME280;32318;48.858;8.252;2022-09-13T05:12:39;99821.50;;;15.99;67.38
46598;BME280;32318;48.858;8.252;2022-09-13T05:20:39;99818.63;;;15.94;67.42
46598;BME280;32318;48.858;8.252;2022-09-13T05:28:39;99807.44;;;15.90;67.84
46598;BME280;32318;48.858;8.252;2022-09-13T05:36:40;99836.63;;;15.80;68.52
46598;BME280;32318;48.858;8.252;2022-09-13T05:44:40;99843.84;;;15.79;68.58
46598;BME280;32318;48.858;8.252;2022-09-13T05:52:40;99845.91;;;16.04;67.93
46598;BME280;32318;48.858;8.252;2022-09-13T06:00:41;99844.66;;;16.13;67.22
46598;BME280;32318;48.858;8.252;2022-09-13T06:08:41;99860.81;;;16.79;66.09
46598;BME280;32318;48.858;8.252;2022-09-13T06:16:42;99857.28;;;16.85;65.94
46598;BME280;32318;48.858;8.252;2022-09-13T06:24:42;99841.41;;;17.09;65.63
46598;BME280;32318;48.858;8.252;2022-09-13T06:32:42;99822.56;;;17.34;65.64
46598;BME280;32318;48.858;8.252;2022-09-13T06:40:43;99804.34;;;17.55;65.49
46598;BME280;32318;48.858;8.252;2022-09-13T06:48:44;99780.41;;;17.84;64.52
46598;BME280;32318;48.858;8.252;2022-09-13T06:56:44;99776.97;;;18.14;63.68
46598;BME280;32318;48.858;8.252;2022-09-13T07:04:44;99776.66;;;18.41;62.98
46598;BME280;32318;48.858;8.252;2022-09-13T07:12:44;99760.50;;;18.53;62.96
46598;BME280;32318;48.858;8.252;2022-09-13T07:20:45;99740.69;;;18.59;62.57
46598;BME280;32318;48.858;8.252;2022-09-13T07:28:47;99763.84;;;18.66;62.71
46598;BME280;32318;48.858;8.252;2022-09-13T07:36:48;99766.47;;;18.73;62.09
46598;BME280;32318;48.858;8.252;2022-09-13T07:44:48;99771.78;;;18.80;62.28
46598;BME280;32318;48.858;8.252;2022-09-13T07:52:48;99760.34;;;19.08;61.86
46598;BME280;32318;48.858;8.252;2022-09-13T08:00:49;99733.09;;;19.57;60.39
46598;BME280;32318;48.858;8.252;2022-09-13T08:08:49;99735.19;;;19.67;60.65
46598;BME280;32318;48.858;8.252;2022-09-13T08:16:50;99743.22;;;19.62;61.19
46598;BME280;32318;48.858;8.252;2022-09-13T08:24:53;99737.31;;;19.53;61.26
46598;BME280;32318;48.858;8.252;2022-09-13T08:32:54;99765.00;;;19.55;61.81
46598;BME280;32318;48.858;8.252;2022-09-13T08:41:00;99780.63;;;19.65;61.96
46598;BME280;32318;48.858;8.252;2022-09-13T08:49:05;99785.50;;;19.75;62.87
46598;BME280;32318;48.858;8.252;2022-09-13T08:57:17;99777.97;;;20.01;62.96
46598;BME280;32318;48.858;8.252;2022-09-13T09:05:24;99792.78;;;20.10;62.20
46598;BME280;32318;48.858;8.252;2022-09-13T09:13:32;99811.50;;;20.12;62.80
46598;BME280;32318;48.858;8.252;2022-09-13T09:21:35;99829.78;;;20.16;62.96
46598;BME280;32318;48.858;8.252;2022-09-13T09:29:36;99821.97;;;20.32;62.21
46598;BME280;32318;48.858;8.252;2022-09-13T09:37:38;99812.88;;;20.26;61.94
46598;BME280;32318;48.858;8.252;2022-09-13T09:45:40;99823.94;;;20.36;61.95
46598;BME280;32318;48.858;8.252;2022-09-13T09:53:44;99837.75;;;20.88;59.91
46598;BME280;32318;48.858;8.252;2022-09-13T10:01:46;99812.13;;;21.29;59.51
46598;BME280;32318;48.858;8.252;2022-09-13T10:09:56;99787.66;;;21.75;58.71
46598;BME280;32318;48.858;8.252;2022-09-13T10:26:10;99775.22;;;22.24;57.55
46598;BME280;32318;48.858;8.252;2022-09-13T10:34:16;99809.63;;;22.35;57.35
46598;BME280;32318;48.858;8.252;2022-09-13T10:42:21;99801.13;;;22.49;56.16
46598;BME280;32318;48.858;8.252;2022-09-13T10:50:26;99799.31;;;22.60;55.71
46598;BME280;32318;48.858;8.252;2022-09-13T10:58:27;99786.59;;;22.65;55.17
46598;BME280;32318;48.858;8.252;2022-09-13T11:15:00;99776.84;;;22.97;54.30
46598;BME280;32318;48.858;8.252;2022-09-13T11:31:20;99768.72;;;23.29;54.93
46598;BME280;32318;48.858;8.252;2022-09-13T11:56:26;99733.88;;;24.27;50.83
46598;BME280;32318;48.858;8.252;2022-09-13T12:05:02;99718.66;;;24.52;51.70
46598;BME280;32318;48.858;8.252;2022-09-13T12:13:08;99687.84;;;24.67;50.88
46598;BME280;32318;48.858;8.252;2022-09-13T12:21:16;99677.44;;;24.64;51.82
46598;BME280;32318;48.858;8.252;2022-09-13T12:29:34;99661.94;;;24.70;50.47
46598;BME280;32318;48.858;8.252;2022-09-13T12:37:47;99655.38;;;24.71;50.45
46598;BME280;32318;48.858;8.252;2022-09-13T12:46:07;99659.44;;;24.79;47.97
46598;BME280;32318;48.858;8.252;2022-09-13T13:11:02;99630.13;;;25.51;44.93
46598;BME280;32318;48.858;8.252;2022-09-13T13:19:29;99621.00;;;25.72;44.25
46598;BME280;32318;48.858;8.252;2022-09-13T13:27:36;99605.91;;;25.90;42.64
46598;BME280;32318;48.858;8.252;2022-09-13T13:35:37;99594.72;;;26.31;43.09
46598;BME280;32318;48.858;8.252;2022-09-13T13:43:38;99593.09;;;26.59;42.97
46598;BME280;32318;48.858;8.252;2022-09-13T13:51:38;99578.25;;;27.00;42.55
46598;BME280;32318;48.858;8.252;2022-09-13T13:59:38;99566.69;;;27.28;42.06
46598;BME280;32318;48.858;8.252;2022-09-13T14:16:02;99535.63;;;26.89;41.66
46598;BME280;32318;48.858;8.252;2022-09-13T14:32:22;99513.84;;;26.79;42.26
46598;BME280;32318;48.858;8.252;2022-09-13T14:40:25;99506.81;;;26.67;42.80
46598;BME280;32318;48.858;8.252;2022-09-13T14:49:14;99485.94;;;26.71;42.80
46598;BME280;32318;48.858;8.252;2022-09-13T14:56:53;99475.59;;;26.68;42.89
46598;BME280;32318;48.858;8.252;2022-09-13T15:04:58;99470.22;;;26.58;43.38
46598;BME280;32318;48.858;8.252;2022-09-13T15:21:15;99449.78;;;26.21;44.65
46598;BME280;32318;48.858;8.252;2022-09-13T15:29:17;99443.59;;;26.10;46.09
46598;BME280;32318;48.858;8.252;2022-09-13T15:37:28;99427.34;;;26.19;45.91
46598;BME280;32318;48.858;8.252;2022-09-13T15:45:28;99427.47;;;26.08;46.15
46598;BME280;32318;48.858;8.252;2022-09-13T15:53:29;99419.88;;;25.95;46.85
46598;BME280;32318;48.858;8.252;2022-09-13T16:01:29;99412.28;;;25.87;46.79
46598;BME280;32318;48.858;8.252;2022-09-13T16:09:29;99419.81;;;25.71;47.95
46598;BME280;32318;48.858;8.252;2022-09-13T16:17:30;99401.78;;;25.70;48.12
46598;BME280;32318;48.858;8.252;2022-09-13T16:25:30;99392.88;;;25.53;48.32
46598;BME280;32318;48.858;8.252;2022-09-13T16:33:30;99402.78;;;25.44;48.93
46598;BME280;32318;48.858;8.252;2022-09-13T16:41:31;99399.00;;;25.40;49.49
46598;BME280;32318;48.858;8.252;2022-09-13T16:49:31;99389.50;;;25.27;49.99
46598;BME280;32318;48.858;8.252;2022-09-13T16:57:32;99383.25;;;25.16;50.97
46598;BME280;32318;48.858;8.252;2022-09-13T17:05:34;99369.69;;;25.01;51.15
46598;BME280;32318;48.858;8.252;2022-09-13T17:13:35;99362.72;;;24.79;52.64
46598;BME280;32318;48.858;8.252;2022-09-13T17:21:36;99365.28;;;24.44;53.20
46598;BME280;32318;48.858;8.252;2022-09-13T17:29:36;99381.44;;;24.20;53.86
46598;BME280;32318;48.858;8.252;2022-09-13T17:37:37;99366.75;;;23.95;54.34
46598;BME280;32318;48.858;8.252;2022-09-13T17:45:37;99366.47;;;23.76;54.75
46598;BME280;32318;48.858;8.252;2022-09-13T17:53:43;99377.38;;;23.61;55.31
46598;BME280;32318;48.858;8.252;2022-09-13T18:01:49;99385.81;;;23.49;55.59
46598;BME280;32318;48.858;8.252;2022-09-13T18:09:50;99383.88;;;23.34;55.89
46598;BME280;32318;48.858;8.252;2022-09-13T18:17:51;99402.66;;;23.25;56.25
46598;BME280;32318;48.858;8.252;2022-09-13T18:25:58;99410.28;;;23.23;56.64
46598;BME280;32318;48.858;8.252;2022-09-13T18:34:01;99420.28;;;23.12;57.50
46598;BME280;32318;48.858;8.252;2022-09-13T18:42:02;99421.66;;;23.05;58.04
46598;BME280;32318;48.858;8.252;2022-09-13T18:50:03;99430.03;;;22.93;58.38
46598;BME280;32318;48.858;8.252;2022-09-13T18:58:04;99425.91;;;22.85;58.71
46598;BME280;32318;48.858;8.252;2022-09-13T19:06:14;99427.44;;;22.65;59.26
46598;BME280;32318;48.858;8.252;2022-09-13T19:22:16;99459.22;;;22.54;59.15
46598;BME280;32318;48.858;8.252;2022-09-13T19:30:16;99459.16;;;22.44;59.26
46598;BME280;32318;48.858;8.252;2022-09-13T19:38:17;99462.16;;;22.43;59.42
46598;BME280;32318;48.858;8.252;2022-09-13T19:46:19;99446.03;;;22.36;59.39
46598;BME280;32318;48.858;8.252;2022-09-13T19:54:21;99424.00;;;22.37;59.21
46598;BME280;32318;48.858;8.252;2022-09-13T20:02:21;99433.44;;;22.24;59.50
46598;BME280;32318;48.858;8.252;2022-09-13T20:10:22;99447.22;;;22.13;59.97
46598;BME280;32318;48.858;8.252;2022-09-13T20:18:22;99435.84;;;22.16;59.95
46598;BME280;32318;48.858;8.252;2022-09-13T20:26:25;99420.31;;;22.16;59.70
46598;BME280;32318;48.858;8.252;2022-09-13T20:34:26;99428.25;;;22.18;60.10
46598;BME280;32318;48.858;8.252;2022-09-13T20:42:27;99430.69;;;22.19;60.22
46598;BME280;32318;48.858;8.252;2022-09-13T20:50:28;99428.66;;;22.04;60.83
46598;BME280;32318;48.858;8.252;2022-09-13T20:58:28;99422.66;;;21.97;60.96
46598;BME280;32318;48.858;8.252;2022-09-13T21:06:38;99407.09;;;21.87;60.84
46598;BME280;32318;48.858;8.252;2022-09-13T21:14:38;99402.59;;;21.71;61.29
46598;BME280;32318;48.858;8.252;2022-09-13T21:22:39;99391.75;;;21.71;61.39
46598;BME280;32318;48.858;8.252;2022-09-13T21:30:40;99390.91;;;21.70;60.99
46598;BME280;32318;48.858;8.252;2022-09-13T21:38:40;99391.31;;;21.57;61.37
46598;BME280;32318;48.858;8.252;2022-09-13T21:46:41;99377.34;;;21.43;61.71
46598;BME280;32318;48.858;8.252;2022-09-13T21:54:41;99373.44;;;21.34;62.00
46598;BME280;32318;48.858;8.252;2022-09-13T22:02:42;99372.38;;;21.35;61.86
46598;BME280;32318;48.858;8.252;2022-09-13T22:10:42;99349.28;;;21.32;62.00
46598;BME280;32318;48.858;8.252;2022-09-13T22:18:43;99343.19;;;21.20;62.61
46598;BME280;32318;48.858;8.252;2022-09-13T22:26:45;99322.50;;;21.13;62.97
46598;BME280;32318;48.858;8.252;2022-09-13T22:34:45;99337.78;;;20.97;64.13
46598;BME280;32318;48.858;8.252;2022-09-13T22:42:46;99336.25;;;21.07;64.23
46598;BME280;32318;48.858;8.252;2022-09-13T22:50:53;99317.78;;;21.04;64.98
46598;BME280;32318;48.858;8.252;2022-09-13T22:59:02;99329.34;;;20.94;65.40
46598;BME280;32318;48.858;8.252;2022-09-13T23:07:03;99322.00;;;20.94;65.42
46598;BME280;32318;48.858;8.252;2022-09-13T23:15:04;99349.41;;;20.71;66.55
46598;BME280;32318;48.858;8.252;2022-09-13T23:23:05;99349.25;;;20.77;66.54
46598;BME280;32318;48.858;8.252;2022-09-13T23:31:09;99344.25;;;20.69;66.83
46598;BME280;32318;48.858;8.252;2022-09-13T23:39:15;99351.31;;;20.70;67.52
46598;BME280;32318;48.858;8.252;2022-09-13T23:47:16;99351.19;;;20.82;67.35
46598;BME280;32318;48.858;8.252;2022-09-13T23:55:16;99349.91;;;20.90;67.17
